createdAt,value
2018-01-21T00:00:33.843Z,16.15
2018-01-21T00:03:01.433Z,16.25
2018-01-21T00:05:28.850Z,18.08
2018-01-21T00:07:56.285Z,16.25
2018-01-21T00:10:23.726Z,16.17
2018-01-21T00:12:51.270Z,17.90
2018-01-21T00:15:18.632Z,17.83
2018-01-21T00:17:46.850Z,17.50
2018-01-21T00:20:14.272Z,16.17
2018-01-21T00:22:41.717Z,15.98
2018-01-21T00:25:09.128Z,15.65
2018-01-21T00:27:37.329Z,15.57
2018-01-21T00:30:04.741Z,16.42
2018-01-21T00:32:32.171Z,16.77
2018-01-21T00:34:59.638Z,15.70
2018-01-21T00:37:27.117Z,16.65
2018-01-21T00:39:55.392Z,16.25
2018-01-21T00:42:22.786Z,16.45
2018-01-21T00:44:50.197Z,17.17
2018-01-21T00:47:17.611Z,16.62
2018-01-21T00:49:45.025Z,17.08
2018-01-21T00:52:12.435Z,16.70
2018-01-21T00:54:39.841Z,17.52
2018-01-21T00:57:07.253Z,19.40
2018-01-21T00:59:35.429Z,18.48
2018-01-21T01:02:03.617Z,22.23
2018-01-21T01:04:31.784Z,20.98
2018-01-21T01:06:59.221Z,18.80
2018-01-21T01:09:26.662Z,16.98
2018-01-21T01:11:54.069Z,18.23
2018-01-21T01:14:21.501Z,18.75
2018-01-21T01:16:48.998Z,19.77
2018-01-21T01:19:16.405Z,21.37
2018-01-21T01:21:44.613Z,20.85
2018-01-21T01:24:12.026Z,20.62
2018-01-21T01:26:39.437Z,19.67
2018-01-21T01:29:07.618Z,18.65
2018-01-21T01:31:35.801Z,19.20
2018-01-21T01:34:03.209Z,18.15
2018-01-21T01:36:30.645Z,18.67
2018-01-21T01:38:58.859Z,17.80
2018-01-21T01:41:26.267Z,17.67
2018-01-21T01:43:53.688Z,18.08
2018-01-21T01:46:21.163Z,18.50
2018-01-21T01:48:54.576Z,19.50
2018-01-21T01:51:21.988Z,18.95
2018-01-21T01:53:49.501Z,17.95
2018-01-21T01:56:16.979Z,18.25
2018-01-21T01:58:44.861Z,19.58
2018-01-21T02:01:13.010Z,19.90
2018-01-21T02:03:41.313Z,19.20
2018-01-21T02:06:08.822Z,20.95
2018-01-21T02:08:36.258Z,19.55
2018-01-21T02:11:03.667Z,20.27
2018-01-21T02:13:31.092Z,19.67
2018-01-21T02:15:58.498Z,19.08
2018-01-21T02:18:25.912Z,20.98
2018-01-21T02:20:54.081Z,21.02
2018-01-21T02:23:21.588Z,19.73
2018-01-21T02:25:48.996Z,19.50
2018-01-21T02:28:16.436Z,18.98
2018-01-21T02:30:43.893Z,21.00
2018-01-21T02:33:11.355Z,19.70
2018-01-21T02:35:38.839Z,19.92
2018-01-21T02:38:06.266Z,20.98
2018-01-21T02:40:33.664Z,21.27
2018-01-21T02:43:01.085Z,20.80
2018-01-21T02:45:28.513Z,20.73
2018-01-21T02:47:55.968Z,20.25
2018-01-21T02:50:23.381Z,19.42
2018-01-21T02:52:50.811Z,20.55
2018-01-21T02:55:18.233Z,20.10
2018-01-21T02:57:45.745Z,20.27
2018-01-21T03:00:13.213Z,20.85
2018-01-21T03:02:40.682Z,21.45
2018-01-21T03:05:08.107Z,20.25
2018-01-21T03:07:35.517Z,21.42
2018-01-21T03:10:02.941Z,22.95
2018-01-21T03:12:30.358Z,21.75
2018-01-21T03:14:57.774Z,21.90
2018-01-21T03:17:25.284Z,21.37
2018-01-21T03:19:52.703Z,22.17
2018-01-21T03:22:20.129Z,21.37
2018-01-21T03:24:47.549Z,20.60
2018-01-21T03:27:15.065Z,20.35
2018-01-21T03:29:42.490Z,21.00
2018-01-21T03:32:10.013Z,20.23
2018-01-21T03:34:37.475Z,20.15
2018-01-21T03:37:04.951Z,19.85
2018-01-21T03:39:32.357Z,20.58
2018-01-21T03:41:59.768Z,20.70
2018-01-21T03:44:27.188Z,21.05
2018-01-21T03:46:54.620Z,20.23
2018-01-21T03:49:22.082Z,20.98
2018-01-21T03:51:49.505Z,20.37
2018-01-21T03:54:16.932Z,20.95
2018-01-21T03:56:44.326Z,20.80
2018-01-21T03:59:11.747Z,20.90
2018-01-21T04:01:39.225Z,20.90
2018-01-21T04:04:06.637Z,20.40
2018-01-21T04:06:34.063Z,20.65
2018-01-21T04:09:01.477Z,20.25
2018-01-21T04:11:29.113Z,21.08
2018-01-21T04:13:56.521Z,20.58
2018-01-21T04:16:23.945Z,19.58
2018-01-21T04:18:51.482Z,22.33
2018-01-21T04:21:19.676Z,21.98
2018-01-21T04:23:47.858Z,21.25
2018-01-21T04:26:16.074Z,20.88
2018-01-21T04:28:43.596Z,21.95
2018-01-21T04:31:11.795Z,22.23
2018-01-21T04:33:39.973Z,21.50
2018-01-21T04:36:07.388Z,22.60
2018-01-21T04:38:34.797Z,23.30
2018-01-21T04:41:02.269Z,22.50
2018-01-21T04:43:29.786Z,21.90
2018-01-21T04:45:57.197Z,21.92
2018-01-21T04:48:24.609Z,22.10
2018-01-21T04:50:52.040Z,22.52
2018-01-21T04:53:19.485Z,23.23
2018-01-21T04:55:46.885Z,21.75
2018-01-21T04:58:14.310Z,22.52
2018-01-21T05:00:41.700Z,22.23
2018-01-21T05:03:09.135Z,22.85
2018-01-21T05:05:36.533Z,23.08
2018-01-21T05:08:03.968Z,22.42
2018-01-21T05:10:32.149Z,22.02
2018-01-21T05:12:59.633Z,24.55
2018-01-21T05:15:27.038Z,22.50
2018-01-21T05:17:54.562Z,25.40
2018-01-21T05:20:22.027Z,23.52
2018-01-21T05:22:49.501Z,23.40
2018-01-21T05:25:16.922Z,24.02
2018-01-21T05:27:44.338Z,23.67
2018-01-21T05:30:11.745Z,23.08
2018-01-21T05:32:39.946Z,23.33
2018-01-21T05:35:07.349Z,24.67
2018-01-21T05:37:34.761Z,24.60
2018-01-21T05:40:02.178Z,23.85
2018-01-21T05:42:29.676Z,24.73
2018-01-21T05:44:57.088Z,26.05
2018-01-21T05:47:24.513Z,24.90
2018-01-21T05:49:51.941Z,26.00
2018-01-21T05:52:20.120Z,26.73
2018-01-21T05:54:48.306Z,27.50
2018-01-21T05:57:15.811Z,27.70
2018-01-21T05:59:43.221Z,27.62
2018-01-21T06:02:10.640Z,28.90
2018-01-21T06:04:38.116Z,29.50
2018-01-21T06:07:05.537Z,29.20
2018-01-21T06:09:32.949Z,30.65
2018-01-21T06:12:00.353Z,32.08
2018-01-21T06:14:27.908Z,32.72
2018-01-21T06:16:55.349Z,33.40
2018-01-21T06:19:22.769Z,34.30
2018-01-21T06:21:50.179Z,35.85
2018-01-21T06:24:17.657Z,34.72
2018-01-21T06:26:45.069Z,37.38
2018-01-21T06:29:12.487Z,35.92
2018-01-21T06:31:39.973Z,37.42
2018-01-21T06:34:07.425Z,36.38
2018-01-21T06:36:34.837Z,37.30
2018-01-21T06:39:02.264Z,36.13
2018-01-21T06:41:29.734Z,36.92
2018-01-21T06:43:57.158Z,35.90
2018-01-21T06:46:24.572Z,37.15
2018-01-21T06:48:51.988Z,36.22
2018-01-21T06:51:19.505Z,36.50
2018-01-21T06:53:46.977Z,36.38
2018-01-21T06:56:14.389Z,36.35
2018-01-21T06:58:41.811Z,35.55
2018-01-21T07:01:09.283Z,34.65
2018-01-21T07:03:36.690Z,33.63
2018-01-21T07:06:04.104Z,34.28
2018-01-21T07:08:31.581Z,33.70
2018-01-21T07:10:59.001Z,35.90
2018-01-21T07:13:26.426Z,35.20
2018-01-21T07:15:53.849Z,33.35
2018-01-21T07:18:21.276Z,33.78
2018-01-21T07:20:48.727Z,34.05
2018-01-21T07:23:16.198Z,34.33
2018-01-21T07:25:43.610Z,34.15
2018-01-21T07:28:11.017Z,33.53
2018-01-21T07:30:38.441Z,33.80
2018-01-21T07:33:05.863Z,32.78
2018-01-21T07:35:33.329Z,34.17
2018-01-21T07:38:00.750Z,31.58
2018-01-21T07:40:28.157Z,29.90
2018-01-21T07:42:55.573Z,29.35
2018-01-21T07:45:23.001Z,30.35
2018-01-21T07:47:50.478Z,28.60
2018-01-21T07:50:17.881Z,28.30
2018-01-21T07:52:45.309Z,26.62
2018-01-21T07:55:12.752Z,25.92
2018-01-21T07:57:40.140Z,26.23
2018-01-21T08:00:07.608Z,27.90
2018-01-21T08:02:35.081Z,26.25
2018-01-21T08:05:02.664Z,26.27
2018-01-21T08:07:30.829Z,25.33
2018-01-21T08:09:58.240Z,24.65
2018-01-21T08:12:25.661Z,23.92
2018-01-21T08:14:53.842Z,23.33
2018-01-21T08:17:22.023Z,23.62
2018-01-21T08:19:50.206Z,22.40
2018-01-21T08:22:18.381Z,23.25
2018-01-21T08:24:45.798Z,25.02
2018-01-21T08:27:13.221Z,23.98
2018-01-21T08:29:41.403Z,24.25
2018-01-21T08:32:08.917Z,23.98
2018-01-21T08:34:42.673Z,22.37
2018-01-21T08:37:28.915Z,23.85
2018-01-21T08:40:02.769Z,23.85
2018-01-21T08:42:34.728Z,23.27
2018-01-21T08:45:02.153Z,23.38
2018-01-21T08:47:29.565Z,21.23
2018-01-21T08:49:57.047Z,23.95
2018-01-21T08:52:24.457Z,24.45
2018-01-21T08:54:51.872Z,23.50
2018-01-21T08:57:19.281Z,24.33
2018-01-21T08:59:46.703Z,23.77
2018-01-21T09:02:14.128Z,23.83
2018-01-21T09:04:41.538Z,24.42
2018-01-21T09:07:09.004Z,23.50
2018-01-21T09:09:36.506Z,25.48
2018-01-21T09:12:03.946Z,26.10
2018-01-21T09:14:31.366Z,24.23
2018-01-21T09:16:59.601Z,24.75
2018-01-21T09:19:27.050Z,24.52
2018-01-21T09:21:54.448Z,23.05
2018-01-21T09:24:21.925Z,23.85
2018-01-21T09:26:49.384Z,24.27
2018-01-21T09:29:16.855Z,24.80
2018-01-21T09:31:44.297Z,25.15
2018-01-21T09:34:12.508Z,25.83
2018-01-21T09:36:39.947Z,24.40
2018-01-21T09:39:07.447Z,25.25
2018-01-21T09:41:34.909Z,26.60
2018-01-21T09:44:02.378Z,25.85
2018-01-21T09:46:30.661Z,25.48
2018-01-21T09:48:58.073Z,27.20
2018-01-21T09:51:25.487Z,26.15
2018-01-21T09:53:53.719Z,25.67
2018-01-21T09:56:21.138Z,24.85
2018-01-21T09:58:49.332Z,25.12
2018-01-21T10:01:17.561Z,26.60
2018-01-21T10:03:44.974Z,25.80
2018-01-21T10:06:13.181Z,26.12
2018-01-21T10:08:40.593Z,26.23
2018-01-21T10:11:08.017Z,25.88
2018-01-21T10:13:35.507Z,25.20
2018-01-21T10:16:02.921Z,25.20
2018-01-21T10:18:30.429Z,25.65
2018-01-21T10:20:57.845Z,24.60
2018-01-21T10:23:25.261Z,24.17
2018-01-21T10:25:52.740Z,23.75
2018-01-21T10:28:20.213Z,25.00
2018-01-21T10:30:47.625Z,23.00
2018-01-21T10:33:15.219Z,23.70
2018-01-21T10:35:43.408Z,24.23
2018-01-21T10:38:11.632Z,24.17
2018-01-21T10:40:39.086Z,23.12
2018-01-21T10:43:06.505Z,22.02
2018-01-21T10:45:33.943Z,23.85
2018-01-21T10:48:01.385Z,23.52
2018-01-21T10:50:28.804Z,22.52
2018-01-21T10:52:56.214Z,21.50
2018-01-21T10:55:23.685Z,22.58
2018-01-21T10:57:51.854Z,21.00
2018-01-21T11:00:20.067Z,20.77
2018-01-21T11:02:48.231Z,20.30
2018-01-21T11:05:16.478Z,20.80
2018-01-21T11:07:43.873Z,20.98
2018-01-21T11:10:11.286Z,20.45
2018-01-21T11:12:38.749Z,21.95
2018-01-21T11:15:06.141Z,22.73
2018-01-21T11:17:33.588Z,23.33
2018-01-21T11:20:00.992Z,23.35
2018-01-21T11:22:28.422Z,23.05
2018-01-21T11:24:55.854Z,23.80
2018-01-21T11:27:24.062Z,22.90
2018-01-21T11:29:51.488Z,23.15
2018-01-21T11:32:18.917Z,23.30
2018-01-21T11:34:46.376Z,22.65
2018-01-21T11:37:13.785Z,21.45
2018-01-21T11:39:41.672Z,20.70
2018-01-21T11:42:09.185Z,19.33
2018-01-21T11:44:36.621Z,20.00
2018-01-21T11:47:04.037Z,19.70
2018-01-21T11:49:31.453Z,17.35
2018-01-21T11:51:58.872Z,17.12
2018-01-21T11:54:26.279Z,17.42
2018-01-21T11:56:53.693Z,17.80
2018-01-21T11:59:21.190Z,17.73
2018-01-21T12:01:48.597Z,17.42
2018-01-21T12:04:16.813Z,17.37
2018-01-21T12:06:44.307Z,15.48
2018-01-21T12:09:12.335Z,15.48
2018-01-21T12:11:39.765Z,15.15
2018-01-21T12:14:07.169Z,15.07
2018-01-21T12:16:34.689Z,14.50
2018-01-21T12:19:02.109Z,14.80
2018-01-21T12:21:29.537Z,13.82
2018-01-21T12:23:56.950Z,14.02
2018-01-21T12:26:24.403Z,19.45
2018-01-21T12:28:51.794Z,15.10
2018-01-21T12:31:20.027Z,14.95
2018-01-21T12:33:47.433Z,15.00
2018-01-21T12:36:14.856Z,13.55
2018-01-21T12:38:42.270Z,12.55
2018-01-21T12:41:09.694Z,11.65
2018-01-21T12:43:37.122Z,10.82
2018-01-21T12:46:05.338Z,11.25
2018-01-21T12:48:32.757Z,11.73
2018-01-21T12:51:00.312Z,11.30
2018-01-21T12:53:27.758Z,11.90
2018-01-21T12:55:55.221Z,11.88
2018-01-21T12:58:22.639Z,11.98
2018-01-21T13:00:50.066Z,12.88
2018-01-21T13:03:17.489Z,12.55
2018-01-21T13:05:45.680Z,13.10
2018-01-21T13:08:13.890Z,12.00
2018-01-21T13:10:41.346Z,11.55
2018-01-21T13:13:08.761Z,11.55
2018-01-21T13:15:37.206Z,11.45
2018-01-21T13:18:04.616Z,11.80
2018-01-21T13:20:32.029Z,11.07
2018-01-21T13:23:00.213Z,12.02
2018-01-21T13:25:28.398Z,12.75
2018-01-21T13:27:56.639Z,11.05
2018-01-21T13:30:24.057Z,11.82
2018-01-21T13:32:52.259Z,10.60
2018-01-21T13:35:20.512Z,9.60
2018-01-21T13:37:47.973Z,10.27
2018-01-21T13:40:15.389Z,10.70
2018-01-21T13:42:42.881Z,10.25
2018-01-21T13:45:10.296Z,9.50
2018-01-21T13:47:38.491Z,10.05
2018-01-21T13:50:06.681Z,11.25
2018-01-21T13:52:34.856Z,10.52
2018-01-21T13:55:02.279Z,10.40
2018-01-21T13:57:29.713Z,11.00
2018-01-21T13:59:57.125Z,11.07
2018-01-21T14:02:24.592Z,10.48
2018-01-21T14:04:51.987Z,9.65
2018-01-21T14:07:20.941Z,9.53
2018-01-21T14:09:48.420Z,10.05
2018-01-21T14:12:15.933Z,10.75
2018-01-21T14:14:43.313Z,9.95
2018-01-21T14:17:11.504Z,10.93
2018-01-21T14:19:38.929Z,9.77
2018-01-21T14:22:06.364Z,9.10
2018-01-21T14:24:33.773Z,9.55
2018-01-21T14:27:01.186Z,9.30
2018-01-21T14:29:28.661Z,9.82
2018-01-21T14:31:56.093Z,9.65
2018-01-21T14:34:23.501Z,9.30
2018-01-21T14:36:50.937Z,10.35
2018-01-21T14:39:18.329Z,9.45
2018-01-21T14:41:45.741Z,11.18
2018-01-21T14:44:13.205Z,11.23
2018-01-21T14:46:40.641Z,10.60
2018-01-21T14:49:08.113Z,11.68
2018-01-21T14:51:35.593Z,11.20
2018-01-21T14:54:03.058Z,11.00
2018-01-21T14:56:30.529Z,9.35
2018-01-21T14:58:57.945Z,10.95
2018-01-21T15:01:25.361Z,11.18
2018-01-21T15:03:52.777Z,10.82
2018-01-21T15:06:20.237Z,11.00
2018-01-21T15:08:47.675Z,11.75
2018-01-21T15:11:15.158Z,12.07
2018-01-21T15:13:42.574Z,10.10
2018-01-21T15:16:10.757Z,11.12
2018-01-21T15:18:39.029Z,10.50
2018-01-21T15:21:06.401Z,11.88
2018-01-21T15:23:34.585Z,11.73
2018-01-21T15:26:02.025Z,11.07
2018-01-21T15:28:29.446Z,11.63
2018-01-21T15:30:56.878Z,15.20
2018-01-21T15:33:24.282Z,14.65
2018-01-21T15:35:51.770Z,13.88
2018-01-21T15:38:19.253Z,13.13
2018-01-21T15:40:46.686Z,13.00
2018-01-21T15:43:15.055Z,12.77
2018-01-21T15:45:43.273Z,13.45
2018-01-21T15:48:10.693Z,12.73
2018-01-21T15:50:38.110Z,12.20
2018-01-21T15:53:05.541Z,13.38
2018-01-21T15:55:32.951Z,14.23
2018-01-21T15:58:00.369Z,13.35
2018-01-21T16:00:27.804Z,14.35
2018-01-21T16:02:55.257Z,12.37
2018-01-21T16:05:22.688Z,12.00
2018-01-21T16:07:50.475Z,11.48
2018-01-21T16:10:17.949Z,12.07
2018-01-21T16:12:46.132Z,12.35
2018-01-21T16:15:14.329Z,12.35
2018-01-21T16:17:42.529Z,12.27
2018-01-21T16:20:09.939Z,13.30
2018-01-21T16:22:37.386Z,12.60
2018-01-21T16:25:04.793Z,13.95
2018-01-21T16:27:32.249Z,14.52
2018-01-21T16:29:59.656Z,12.68
2018-01-21T16:32:27.860Z,14.00
2018-01-21T16:34:55.273Z,13.30
2018-01-21T16:37:34.669Z,12.98
2018-01-21T16:40:02.078Z,12.25
2018-01-21T16:42:29.488Z,11.45
2018-01-21T16:44:57.671Z,11.45
2018-01-21T16:47:25.850Z,11.60
2018-01-21T16:49:54.030Z,12.18
2018-01-21T16:52:21.532Z,13.30
2018-01-21T16:54:48.950Z,13.62
2018-01-21T16:57:16.360Z,14.13
2018-01-21T16:59:43.781Z,13.25
2018-01-21T17:02:11.204Z,13.13
2018-01-21T17:04:38.613Z,12.77
2018-01-21T17:07:06.031Z,12.60
2018-01-21T17:09:34.209Z,12.45
2018-01-21T17:12:02.389Z,12.45
2018-01-21T17:14:30.577Z,11.90
2018-01-21T17:16:58.841Z,12.37
2018-01-21T17:19:26.358Z,13.00
2018-01-21T17:21:53.778Z,13.30
2018-01-21T17:24:21.233Z,13.07
2018-01-21T17:26:48.646Z,13.73
2018-01-21T17:29:16.825Z,12.35
2018-01-21T17:31:45.053Z,11.80
2018-01-21T17:34:12.515Z,12.85
2018-01-21T17:36:39.945Z,12.77
2018-01-21T17:39:07.359Z,14.00
2018-01-21T17:41:34.831Z,15.05
2018-01-21T17:44:02.240Z,16.70
2018-01-21T17:46:29.654Z,18.40
2018-01-21T17:48:57.078Z,17.37
2018-01-21T17:51:24.497Z,16.02
2018-01-21T17:53:51.941Z,17.05
2018-01-21T17:56:20.163Z,14.95
2018-01-21T17:58:47.615Z,15.20
2018-01-21T18:01:15.026Z,21.30
2018-01-21T18:03:42.448Z,15.38
2018-01-21T18:06:09.866Z,14.75
2018-01-21T18:08:37.284Z,15.00
2018-01-21T18:11:04.758Z,15.85
2018-01-21T18:13:33.005Z,15.60
2018-01-21T18:16:00.484Z,15.20
2018-01-21T18:18:28.770Z,15.38
2018-01-21T18:20:57.013Z,15.80
2018-01-21T18:23:24.498Z,15.63
2018-01-21T18:25:52.049Z,14.95
2018-01-21T18:28:19.542Z,15.73
2018-01-21T18:30:47.019Z,15.38
2018-01-21T18:33:14.456Z,14.95
2018-01-21T18:35:41.881Z,14.75
2018-01-21T18:38:09.421Z,15.57
2018-01-21T18:40:36.853Z,14.43
2018-01-21T18:43:04.287Z,16.62
2018-01-21T18:45:32.517Z,15.80
2018-01-21T18:48:00.022Z,18.77
2018-01-21T18:50:27.441Z,15.52
2018-01-21T18:52:54.902Z,14.30
2018-01-21T18:55:23.177Z,12.73
2018-01-21T18:57:50.865Z,15.38
2018-01-21T19:00:18.299Z,16.25
2018-01-21T19:02:46.556Z,14.40
2018-01-21T19:05:13.985Z,14.75
2018-01-21T19:07:41.569Z,14.52
2018-01-21T19:10:09.021Z,14.20
2018-01-21T19:12:36.453Z,14.60
2018-01-21T19:15:03.879Z,15.00
2018-01-21T19:17:31.294Z,14.10
2018-01-21T19:20:00.217Z,13.38
2018-01-21T19:22:28.426Z,14.13
2018-01-21T19:24:55.838Z,13.90
2018-01-21T19:27:23.357Z,13.93
2018-01-21T19:29:50.835Z,14.18
2018-01-21T19:32:18.298Z,15.10
2018-01-21T19:34:45.725Z,14.80
2018-01-21T19:37:13.135Z,14.55
2018-01-21T19:39:46.013Z,15.48
2018-01-21T19:42:24.109Z,16.83
2018-01-21T19:44:51.521Z,16.48
2018-01-21T19:47:18.936Z,14.68
2018-01-21T19:49:46.449Z,15.85
2018-01-21T19:52:13.858Z,16.90
2018-01-21T19:54:41.342Z,16.60
2018-01-21T19:57:08.789Z,15.90
2018-01-21T19:59:36.247Z,16.20
2018-01-21T20:02:03.721Z,16.30
2018-01-21T20:04:31.278Z,16.85
2018-01-21T20:06:58.728Z,16.87
2018-01-21T20:09:26.966Z,15.98
2018-01-21T20:11:54.479Z,18.98
2018-01-21T20:14:21.951Z,17.48
2018-01-21T20:16:49.371Z,17.02
2018-01-21T20:19:16.833Z,17.25
2018-01-21T20:21:44.286Z,17.35
2018-01-21T20:24:11.709Z,18.08
2018-01-21T20:26:39.201Z,17.85
2018-01-21T20:29:06.711Z,18.10
2018-01-21T20:31:34.168Z,18.23
2018-01-21T20:34:01.769Z,17.55
2018-01-21T20:36:29.238Z,21.35
2018-01-21T20:38:56.676Z,19.17
2018-01-21T20:41:24.130Z,18.33
2018-01-21T20:43:51.633Z,16.83
2018-01-21T20:46:19.074Z,18.02
2018-01-21T20:48:46.485Z,17.85
2018-01-21T20:51:31.713Z,17.35
2018-01-21T20:54:04.867Z,18.00
2018-01-21T20:56:32.292Z,17.87
2018-01-21T20:58:59.761Z,18.62
2018-01-21T21:01:27.177Z,18.27
2018-01-21T21:03:54.613Z,18.90
2018-01-21T21:06:22.022Z,18.17
2018-01-21T21:08:49.560Z,18.40
2018-01-21T21:11:16.998Z,17.65
2018-01-21T21:13:44.577Z,16.50
2018-01-21T21:16:12.729Z,18.08
2018-01-21T21:18:40.913Z,16.65
2018-01-21T21:21:09.122Z,19.30
2018-01-21T21:23:36.554Z,17.90
2018-01-21T21:26:03.973Z,17.40
2018-01-21T21:28:31.430Z,17.90
2018-01-21T21:30:58.838Z,17.73
2018-01-21T21:33:26.263Z,16.60
2018-01-21T21:35:53.681Z,22.35
2018-01-21T21:38:21.091Z,16.92
2018-01-21T21:40:49.342Z,16.60
2018-01-21T21:43:16.762Z,17.37
2018-01-21T21:45:44.194Z,16.75
2018-01-21T21:48:12.374Z,16.62
2018-01-21T21:50:39.825Z,16.10
2018-01-21T21:53:07.229Z,15.95
2018-01-21T21:55:35.437Z,15.32
2018-01-21T21:58:02.837Z,16.15
2018-01-21T22:00:30.262Z,15.30
2018-01-21T22:02:58.429Z,15.73
2018-01-21T22:05:26.750Z,16.02
2018-01-21T22:07:54.893Z,17.15
2018-01-21T22:10:22.331Z,15.15
2018-01-21T22:12:49.773Z,15.82
2018-01-21T22:15:17.198Z,16.30
2018-01-21T22:17:44.793Z,15.10
2018-01-21T22:20:12.205Z,17.08
2018-01-21T22:22:39.648Z,15.15
2018-01-21T22:25:07.070Z,15.40
2018-01-21T22:27:34.470Z,16.80
2018-01-21T22:30:01.888Z,16.45
2018-01-21T22:32:29.288Z,18.05
2018-01-21T22:34:57.474Z,15.90
2018-01-21T22:37:25.641Z,16.98
2018-01-21T22:39:53.057Z,16.20
2018-01-21T22:42:20.465Z,16.50
2018-01-21T22:44:48.020Z,16.60
2018-01-21T22:47:15.423Z,15.57
2018-01-21T22:49:43.597Z,17.12
2018-01-21T22:52:11.007Z,17.92
2018-01-21T22:54:38.405Z,16.40
2018-01-21T22:57:05.833Z,16.25
2018-01-21T22:59:33.245Z,16.62
2018-01-21T23:02:00.649Z,17.65
2018-01-21T23:04:28.829Z,18.00
2018-01-21T23:06:56.275Z,16.62
2018-01-21T23:09:23.675Z,16.25
2018-01-21T23:11:51.869Z,21.90
2018-01-21T23:14:20.031Z,17.58
2018-01-21T23:16:47.541Z,19.20
2018-01-21T23:19:14.955Z,18.92
2018-01-21T23:21:42.361Z,18.08
2018-01-21T23:24:10.533Z,19.50
2018-01-21T23:26:38.705Z,18.75
2018-01-21T23:29:06.130Z,18.30
2018-01-21T23:31:33.539Z,18.35
2018-01-21T23:34:00.958Z,18.50
2018-01-21T23:36:28.376Z,17.17
2018-01-21T23:38:55.789Z,17.90
2018-01-21T23:41:23.264Z,18.08
2018-01-21T23:43:50.678Z,18.60
2018-01-21T23:46:18.192Z,18.80
2018-01-21T23:48:45.596Z,16.60
2018-01-21T23:51:13.019Z,16.80
2018-01-21T23:53:41.209Z,17.45
2018-01-21T23:56:08.688Z,17.98
2018-01-21T23:58:36.093Z,17.83
